Time;durP1;ratioP1;P1;durP2;ratioP2;P2;SDS_P1;SDS_P2;PMS_P1;PMS_P2;Temp;Humidity;BMP_temperature;BMP_pressure;BME280_temperature;BME280_humidity;BME280_pressure;Samples;Min_cycle;Max_cycle;Signal;HPM_P1;HPM_P2
2023/10/20 00:00:26;;;;;;;3.57;2.90;;;15.80;99.90;;;;;;5065287;28;20231;-58
2023/10/20 00:02:54;;;;;;;5.70;2.77;;;15.80;99.90;;;;;;5069313;28;20223;-58
2023/10/20 00:05:23;;;;;;;3.43;3.03;;;15.90;99.90;;;;;;5067815;28;20256;-58
2023/10/20 00:07:53;;;;;;;14.03;3.80;;;15.90;99.90;;;;;;5067127;28;20226;-58
2023/10/20 00:10:22;;;;;;;6.90;3.27;;;15.80;99.90;;;;;;5066876;28;20198;-58
2023/10/20 00:12:50;;;;;;;5.57;3.00;;;15.80;99.90;;;;;;5069432;28;20190;-59
2023/10/20 00:15:20;;;;;;;5.87;3.50;;;15.80;99.90;;;;;;5064357;28;20230;-59
2023/10/20 00:17:48;;;;;;;4.57;3.03;;;15.80;99.90;;;;;;5067914;28;20269;-59
2023/10/20 00:20:17;;;;;;;3.40;3.10;;;15.80;99.90;;;;;;5066740;28;20706;-59
2023/10/20 00:22:46;;;;;;;4.27;3.40;;;15.80;99.90;;;;;;5065954;28;20227;-59
2023/10/20 00:25:15;;;;;;;4.00;2.60;;;15.80;99.90;;;;;;5065578;28;20226;-59
2023/10/20 00:27:46;;;;;;;5.17;3.43;;;15.90;99.90;;;;;;5066889;28;20228;-59
2023/10/20 00:30:14;;;;;;;4.77;2.93;;;15.90;99.90;;;;;;5065582;28;20214;-59
2023/10/20 00:32:45;;;;;;;6.20;2.83;;;15.90;99.90;;;;;;5061765;28;20223;-59
2023/10/20 00:35:14;;;;;;;5.07;2.93;;;15.90;99.90;;;;;;5063953;28;20217;-58
2023/10/20 00:37:42;;;;;;;3.00;2.80;;;15.90;99.90;;;;;;5065525;28;20225;-59
2023/10/20 00:40:12;;;;;;;3.63;2.87;;;15.90;99.90;;;;;;5063300;28;20608;-59
2023/10/20 00:42:42;;;;;;;2.87;2.67;;;16.00;99.90;;;;;;5062234;28;20232;-58
2023/10/20 00:45:11;;;;;;;2.97;2.67;;;16.00;99.90;;;;;;5062814;28;20226;-58
2023/10/20 00:47:40;;;;;;;2.53;2.43;;;16.00;99.90;;;;;;5067992;28;20215;-58
2023/10/20 00:50:11;;;;;;;2.77;2.57;;;16.00;99.90;;;;;;5061204;28;20217;-58
2023/10/20 00:52:44;;;;;;;3.33;3.10;;;16.00;99.90;;;;;;5066441;28;20199;-58
2023/10/20 00:55:13;;;;;;;3.73;2.50;;;16.00;99.90;;;;;;5066162;28;20257;-58
2023/10/20 00:57:44;;;;;;;4.00;2.67;;;16.00;99.90;;;;;;5066915;28;20617;-58
2023/10/20 01:00:13;;;;;;;2.90;2.70;;;15.90;99.90;;;;;;5064990;28;20225;-59
2023/10/20 01:02:42;;;;;;;2.47;2.43;;;16.00;99.90;;;;;;5070442;22;21521;-60
2023/10/20 01:05:14;;;;;;;3.20;2.73;;;15.90;99.90;;;;;;5057136;28;20248;-60
2023/10/20 01:07:43;;;;;;;2.90;2.80;;;15.90;99.90;;;;;;5043775;28;20219;-60
2023/10/20 01:10:12;;;;;;;3.30;2.97;;;15.90;99.90;;;;;;5046103;28;20225;-60
2023/10/20 01:12:40;;;;;;;2.60;2.50;;;15.90;99.90;;;;;;5041469;28;20223;-60
2023/10/20 01:15:15;;;;;;;2.77;2.67;;;15.90;99.90;;;;;;5044512;28;20220;-60
2023/10/20 01:17:43;;;;;;;3.03;2.83;;;15.90;99.90;;;;;;5048864;28;20308;-60
2023/10/20 01:20:13;;;;;;;3.30;3.00;;;15.90;99.90;;;;;;5042677;28;20233;-60
2023/10/20 01:22:41;;;;;;;2.63;2.53;;;15.90;99.90;;;;;;5043054;28;21450;-60
2023/10/20 01:25:12;;;;;;;2.73;2.53;;;15.90;99.90;;;;;;5043161;28;20192;-60
2023/10/20 01:27:40;;;;;;;4.20;2.60;;;15.90;99.90;;;;;;5029388;28;20609;-60
2023/10/20 01:30:10;;;;;;;3.93;3.00;;;15.90;99.90;;;;;;5056500;28;20226;-60
2023/10/20 01:32:40;;;;;;;2.70;2.50;;;15.90;99.90;;;;;;5061712;28;20232;-60
2023/10/20 01:35:09;;;;;;;3.03;2.60;;;15.90;99.90;;;;;;5063706;28;20220;-60
2023/10/20 01:37:38;;;;;;;2.97;2.77;;;15.90;99.90;;;;;;5065732;28;20199;-60
2023/10/20 01:40:08;;;;;;;3.00;2.90;;;15.80;99.90;;;;;;5057868;28;20196;-60
2023/10/20 01:42:38;;;;;;;6.50;2.70;;;15.80;99.90;;;;;;5060301;28;20222;-61
2023/10/20 01:45:09;;;;;;;3.33;3.03;;;15.80;99.90;;;;;;5060079;28;20305;-60
2023/10/20 01:47:37;;;;;;;4.40;3.27;;;15.80;99.90;;;;;;5054203;28;20227;-61
2023/10/20 01:50:07;;;;;;;3.30;3.10;;;15.70;99.90;;;;;;5045377;28;20313;-60
2023/10/20 01:52:35;;;;;;;2.93;2.83;;;15.70;99.90;;;;;;5048528;28;20791;-60
2023/10/20 01:55:04;;;;;;;4.50;3.17;;;15.70;99.90;;;;;;5046448;28;20575;-60
2023/10/20 01:57:32;;;;;;;4.43;3.10;;;15.70;99.90;;;;;;5044995;28;20223;-60
2023/10/20 02:00:03;;;;;;;4.37;3.30;;;15.70;99.90;;;;;;5042831;28;21250;-60
2023/10/20 02:02:32;;;;;;;3.90;3.10;;;15.70;99.90;;;;;;5062825;28;20700;-59
2023/10/20 02:05:00;;;;;;;3.57;3.33;;;15.70;99.90;;;;;;5065355;28;20221;-59
2023/10/20 02:07:28;;;;;;;7.13;4.17;;;15.60;99.90;;;;;;5065497;28;20545;-59
2023/10/20 02:09:56;;;;;;;6.57;4.60;;;15.60;99.90;;;;;;5067958;28;20627;-59
2023/10/20 02:12:24;;;;;;;7.67;4.53;;;15.60;99.90;;;;;;5060858;28;20224;-59
2023/10/20 02:14:53;;;;;;;4.93;4.00;;;15.60;99.90;;;;;;5068156;28;20233;-60
2023/10/20 02:17:22;;;;;;;5.53;4.57;;;15.60;99.90;;;;;;5067301;28;20243;-60
2023/10/20 02:19:50;;;;;;;4.50;4.10;;;15.60;99.90;;;;;;5069854;28;20621;-60
2023/10/20 02:22:20;;;;;;;4.43;4.03;;;15.60;99.90;;;;;;5065382;28;20662;-60
2023/10/20 02:24:48;;;;;;;4.33;4.13;;;15.50;99.90;;;;;;5066521;28;20220;-60
2023/10/20 02:27:16;;;;;;;4.37;4.07;;;15.50;99.90;;;;;;5066285;28;20694;-60
2023/10/20 02:29:44;;;;;;;4.17;3.80;;;15.50;99.90;;;;;;5065166;28;20238;-60
2023/10/20 02:32:12;;;;;;;4.50;4.10;;;15.50;99.90;;;;;;5063621;28;20746;-60
2023/10/20 02:34:42;;;;;;;6.33;4.43;;;15.40;99.90;;;;;;5065899;28;20302;-60
2023/10/20 02:37:12;;;;;;;5.53;4.53;;;15.40;99.90;;;;;;5063365;28;20196;-60
2023/10/20 02:39:41;;;;;;;5.73;4.67;;;15.50;99.90;;;;;;5050284;28;20214;-60
2023/10/20 02:42:09;;;;;;;4.60;4.27;;;15.40;99.90;;;;;;5063291;28;20217;-60
2023/10/20 02:44:38;;;;;;;5.30;4.90;;;15.40;99.90;;;;;;5064763;28;20215;-60
2023/10/20 02:47:06;;;;;;;6.33;4.97;;;15.40;99.90;;;;;;5062857;28;20600;-60
2023/10/20 02:49:35;;;;;;;5.90;4.57;;;15.40;99.90;;;;;;5063556;28;20198;-60
2023/10/20 02:52:05;;;;;;;7.40;5.23;;;15.40;99.90;;;;;;5063326;28;20827;-60
2023/10/20 02:54:34;;;;;;;6.43;5.40;;;15.40;99.90;;;;;;5061448;28;20217;-60
2023/10/20 02:57:06;;;;;;;8.47;5.50;;;15.40;99.90;;;;;;5062751;28;20284;-61
2023/10/20 02:59:35;;;;;;;6.53;5.43;;;15.40;99.90;;;;;;5062177;28;20212;-61
2023/10/20 03:02:03;;;;;;;7.47;5.70;;;15.40;99.90;;;;;;5061158;28;20282;-60
2023/10/20 03:04:32;;;;;;;7.70;5.87;;;15.40;99.90;;;;;;5064833;28;20205;-60
2023/10/20 03:07:00;;;;;;;6.50;5.90;;;15.40;99.90;;;;;;5063357;28;20202;-61
2023/10/20 03:09:30;;;;;;;6.80;6.10;;;15.40;99.90;;;;;;5059356;28;20214;-62
2023/10/20 03:11:58;;;;;;;7.20;5.73;;;15.40;99.90;;;;;;5060303;28;20218;-61
2023/10/20 03:14:26;;;;;;;7.90;6.20;;;15.40;99.90;;;;;;5063636;28;20224;-61
2023/10/20 03:16:55;;;;;;;9.87;5.50;;;15.40;99.90;;;;;;5065214;28;21050;-60
2023/10/20 03:19:23;;;;;;;6.50;5.67;;;15.40;99.90;;;;;;5065424;28;20658;-60
2023/10/20 03:21:52;;;;;;;5.63;5.20;;;15.40;99.90;;;;;;5048808;28;20210;-62
2023/10/20 03:24:20;;;;;;;6.57;5.57;;;15.40;99.90;;;;;;5061154;28;20666;-61
2023/10/20 03:26:50;;;;;;;7.33;6.60;;;15.30;99.90;;;;;;5059236;28;20221;-61
2023/10/20 03:29:18;;;;;;;6.67;6.07;;;15.30;99.90;;;;;;5064259;28;20218;-61
2023/10/20 03:31:47;;;;;;;6.80;6.20;;;15.30;99.90;;;;;;5067032;28;20253;-61
2023/10/20 03:34:15;;;;;;;6.57;6.07;;;15.30;99.90;;;;;;5062969;28;20212;-61
2023/10/20 03:36:43;;;;;;;6.70;6.20;;;15.20;99.90;;;;;;5063857;28;20780;-61
2023/10/20 03:39:20;;;;;;;7.47;6.87;;;15.20;99.90;;;;;;5065852;28;20216;-61
2023/10/20 03:41:50;;;;;;;7.53;6.83;;;15.20;99.90;;;;;;5062250;28;20327;-61
2023/10/20 03:44:21;;;;;;;7.57;6.87;;;15.20;99.90;;;;;;5063698;28;20239;-61
2023/10/20 03:46:49;;;;;;;8.13;7.33;;;15.20;99.90;;;;;;5068205;28;20212;-60
2023/10/20 03:49:18;;;;;;;8.53;7.03;;;15.20;99.90;;;;;;5080772;28;20195;-61
2023/10/20 03:51:49;;;;;;;8.83;7.77;;;15.20;99.90;;;;;;5079269;28;20563;-62
2023/10/20 03:54:18;;;;;;;8.23;7.43;;;15.20;99.90;;;;;;5084246;28;20212;-61
2023/10/20 03:56:48;;;;;;;9.33;7.70;;;15.20;99.90;;;;;;5063633;28;20224;-61
2023/10/20 03:59:17;;;;;;;10.03;8.20;;;15.20;99.90;;;;;;5081706;28;20225;-60
2023/10/20 04:01:45;;;;;;;10.03;8.57;;;15.20;99.90;;;;;;5075334;28;20247;-61
2023/10/20 04:04:13;;;;;;;11.03;8.23;;;15.20;99.90;;;;;;5082050;28;20677;-61
2023/10/20 04:06:43;;;;;;;11.10;8.60;;;15.20;99.90;;;;;;5078237;28;20322;-61
2023/10/20 04:09:12;;;;;;;12.37;10.23;;;15.20;99.90;;;;;;5081361;28;20225;-61
2023/10/20 04:11:41;;;;;;;11.83;9.40;;;15.20;99.90;;;;;;5081408;28;20308;-61
2023/10/20 04:14:12;;;;;;;9.87;8.80;;;15.20;99.90;;;;;;5080841;28;20633;-61
2023/10/20 04:16:41;;;;;;;13.70;10.00;;;15.20;99.90;;;;;;5079740;28;20275;-60
2023/10/20 04:19:10;;;;;;;12.47;9.80;;;15.20;99.90;;;;;;5085094;28;20654;-61
2023/10/20 04:21:40;;;;;;;13.73;10.37;;;15.20;99.90;;;;;;5078769;28;20596;-61
2023/10/20 04:24:09;;;;;;;12.30;10.30;;;15.20;99.90;;;;;;5081930;28;20594;-61
2023/10/20 04:26:38;;;;;;;12.03;10.73;;;15.20;99.90;;;;;;5079562;28;20246;-60
2023/10/20 04:29:23;;;;;;;12.93;10.87;;;15.20;99.90;;;;;;5078804;28;20715;-60
2023/10/20 04:43:35;;;;;;;15.73;12.23;;;15.00;99.90;;;;;;5080937;28;20219;-60
2023/10/20 04:49:17;;;;;;;18.03;12.27;;;15.10;99.90;;;;;;5005153;28;20247;-60
2023/10/20 04:52:17;;;;;;;16.80;12.30;;;15.00;99.90;;;;;;5080807;28;20211;-60
2023/10/20 04:54:50;;;;;;;18.03;12.67;;;15.00;99.90;;;;;;5082169;28;20223;-61
2023/10/20 04:57:37;;;;;;;16.37;12.20;;;15.00;99.90;;;;;;5081142;28;20285;-60
2023/10/20 05:03:14;;;;;;;15.80;12.07;;;15.00;99.90;;;;;;5040474;28;20869;-61
2023/10/20 05:05:53;;;;;;;17.23;12.03;;;15.00;99.90;;;;;;5081628;28;20761;-59
2023/10/20 05:08:23;;;;;;;17.23;11.87;;;15.00;99.90;;;;;;5070132;28;20225;-59
2023/10/20 05:10:53;;;;;;;14.73;11.90;;;15.00;99.90;;;;;;5059650;28;20288;-60
2023/10/20 05:13:22;;;;;;;16.93;12.27;;;15.00;99.90;;;;;;5059051;28;20205;-59
2023/10/20 05:15:50;;;;;;;15.50;12.27;;;15.00;99.90;;;;;;5060229;28;20193;-61
2023/10/20 05:18:19;;;;;;;18.53;13.00;;;15.00;99.90;;;;;;5058482;28;20217;-60
2023/10/20 05:20:48;;;;;;;15.57;12.90;;;15.00;99.90;;;;;;5060692;28;20338;-60
2023/10/20 05:23:16;;;;;;;15.67;12.53;;;15.00;99.90;;;;;;5058504;28;20301;-60
2023/10/20 05:25:49;;;;;;;18.20;13.33;;;15.00;99.90;;;;;;5066420;28;20226;-60
2023/10/20 05:28:17;;;;;;;19.67;13.77;;;15.00;99.90;;;;;;5063016;28;20566;-61
2023/10/20 05:30:46;;;;;;;20.03;13.17;;;15.00;99.90;;;;;;5089136;28;20224;-61
2023/10/20 05:33:15;;;;;;;18.23;13.47;;;15.00;99.90;;;;;;5087599;28;20220;-60
2023/10/20 05:35:44;;;;;;;17.50;13.63;;;15.00;99.90;;;;;;5082541;28;20644;-60
2023/10/20 05:38:13;;;;;;;19.07;14.00;;;15.00;99.90;;;;;;5090158;28;20219;-61
2023/10/20 05:40:42;;;;;;;24.10;14.83;;;15.00;99.90;;;;;;5083782;28;20243;-60
2023/10/20 05:43:10;;;;;;;18.00;14.60;;;15.00;99.90;;;;;;5081356;28;20223;-61
2023/10/20 05:45:39;;;;;;;20.70;14.43;;;15.00;99.90;;;;;;5083842;28;20263;-60
2023/10/20 05:48:08;;;;;;;17.73;14.17;;;15.00;99.90;;;;;;5079389;28;20293;-60
2023/10/20 05:50:37;;;;;;;18.10;14.63;;;15.00;99.90;;;;;;5086084;28;20574;-59
2023/10/20 05:53:06;;;;;;;22.40;15.70;;;15.00;99.90;;;;;;5070194;28;20218;-59
2023/10/20 05:55:37;;;;;;;17.53;14.30;;;15.00;99.90;;;;;;5089538;28;20207;-59
2023/10/20 05:58:06;;;;;;;17.17;14.30;;;15.00;99.90;;;;;;5091260;28;20185;-59
2023/10/20 06:00:35;;;;;;;19.50;14.37;;;15.00;99.90;;;;;;5085601;28;20216;-59
2023/10/20 06:03:24;;;;;;;16.43;14.33;;;15.00;99.90;;;;;;5077748;28;20298;-60
2023/10/20 06:05:59;;;;;;;18.37;14.33;;;15.00;99.90;;;;;;5084361;28;20244;-61
2023/10/20 06:08:28;;;;;;;15.90;14.20;;;15.00;99.90;;;;;;5083438;28;20215;-61
2023/10/20 06:11:03;;;;;;;20.17;14.37;;;15.00;99.90;;;;;;5084988;28;20217;-59
2023/10/20 06:13:32;;;;;;;18.47;12.90;;;15.00;99.90;;;;;;5085761;28;21153;-59
2023/10/20 06:16:08;;;;;;;18.93;14.37;;;15.00;99.90;;;;;;5086235;28;20187;-60
2023/10/20 06:18:37;;;;;;;22.63;14.07;;;15.00;99.90;;;;;;5083988;28;20227;-60
2023/10/20 06:21:06;;;;;;;19.20;14.30;;;15.00;99.90;;;;;;5084006;28;20228;-60
2023/10/20 06:23:35;;;;;;;15.63;12.87;;;15.00;99.90;;;;;;5085819;28;20227;-60
2023/10/20 06:26:04;;;;;;;15.17;13.10;;;14.90;99.90;;;;;;5085435;28;20332;-60
2023/10/20 06:28:33;;;;;;;16.40;12.60;;;15.00;99.90;;;;;;5081947;28;20202;-59
2023/10/20 06:31:17;;;;;;;14.50;12.17;;;14.90;99.90;;;;;;5078137;28;20198;-61
2023/10/20 06:33:47;;;;;;;16.00;11.40;;;14.90;99.90;;;;;;5083037;28;20306;-60
2023/10/20 06:36:22;;;;;;;14.53;11.97;;;14.90;99.90;;;;;;5081369;28;20228;-60
2023/10/20 06:38:50;;;;;;;15.37;11.43;;;14.90;99.90;;;;;;5085044;28;20228;-61
2023/10/20 06:41:20;;;;;;;13.63;11.90;;;14.90;99.90;;;;;;5080739;28;20585;-61
2023/10/20 06:43:50;;;;;;;13.50;10.77;;;14.90;99.90;;;;;;5084504;28;20278;-60
2023/10/20 06:46:21;;;;;;;13.87;11.37;;;15.00;99.90;;;;;;5084330;28;20524;-60
2023/10/20 06:48:50;;;;;;;15.43;11.83;;;15.00;99.90;;;;;;5082316;28;20211;-61
2023/10/20 06:51:18;;;;;;;15.73;11.67;;;15.00;99.90;;;;;;5085573;28;20209;-60
2023/10/20 06:53:46;;;;;;;14.23;11.30;;;14.90;99.90;;;;;;5085528;28;20808;-60
2023/10/20 06:56:15;;;;;;;16.83;11.83;;;15.00;99.90;;;;;;5085402;28;20219;-60
2023/10/20 06:58:49;;;;;;;14.97;11.47;;;15.00;99.90;;;;;;5083258;28;20229;-60
2023/10/20 07:01:18;;;;;;;14.40;11.57;;;15.00;99.90;;;;;;5067137;28;20257;-60
2023/10/20 07:03:46;;;;;;;17.73;12.53;;;15.00;99.90;;;;;;5078041;28;20213;-61
2023/10/20 07:06:15;;;;;;;16.90;12.83;;;15.00;99.90;;;;;;5083799;28;20221;-61
2023/10/20 07:08:44;;;;;;;14.73;11.73;;;15.00;99.90;;;;;;5085309;28;20682;-62
2023/10/20 07:11:12;;;;;;;20.73;12.47;;;15.00;99.90;;;;;;5085744;28;20216;-60
2023/10/20 07:13:41;;;;;;;16.53;12.40;;;15.00;99.90;;;;;;5085165;28;20350;-60
2023/10/20 07:16:11;;;;;;;18.53;12.60;;;15.10;99.90;;;;;;5090370;28;20189;-60
2023/10/20 07:18:40;;;;;;;16.97;12.27;;;15.10;99.90;;;;;;5083251;28;20221;-61
2023/10/20 07:21:08;;;;;;;17.10;11.90;;;15.10;99.90;;;;;;5081647;28;20221;-60
2023/10/20 07:23:37;;;;;;;16.60;11.57;;;15.10;99.90;;;;;;5066061;28;20585;-62
2023/10/20 07:26:05;;;;;;;19.07;12.10;;;15.20;99.90;;;;;;5081156;28;20229;-61
2023/10/20 07:28:33;;;;;;;16.23;11.27;;;15.20;99.90;;;;;;5081925;28;20201;-60
2023/10/20 07:31:15;;;;;;;18.37;12.10;;;15.20;99.90;;;;;;5084355;28;20201;-62
2023/10/20 07:33:47;;;;;;;17.60;11.70;;;15.30;99.90;;;;;;5081424;28;20296;-61
2023/10/20 07:36:15;;;;;;;19.70;11.27;;;15.30;99.90;;;;;;5080074;28;20208;-60
2023/10/20 07:38:44;;;;;;;14.93;11.53;;;15.30;99.90;;;;;;5082163;28;20246;-60
2023/10/20 07:41:13;;;;;;;16.83;11.67;;;15.30;99.90;;;;;;5084465;28;20232;-60
2023/10/20 07:43:42;;;;;;;14.43;10.80;;;15.30;99.90;;;;;;5084128;28;20664;-60
2023/10/20 07:46:17;;;;;;;15.47;11.80;;;15.40;99.90;;;;;;5079013;28;20212;-61
2023/10/20 07:48:45;;;;;;;17.97;11.43;;;15.40;99.90;;;;;;5085144;28;20208;-60
2023/10/20 07:51:14;;;;;;;12.27;10.37;;;15.40;99.90;;;;;;5083420;28;20245;-60
2023/10/20 07:53:42;;;;;;;12.73;10.40;;;15.40;99.90;;;;;;5086522;28;20661;-60
2023/10/20 07:56:12;;;;;;;16.13;10.13;;;15.40;99.90;;;;;;5083431;28;20685;-60
2023/10/20 07:58:41;;;;;;;13.70;10.57;;;15.40;99.90;;;;;;5084433;28;20254;-61
2023/10/20 08:01:09;;;;;;;10.90;9.80;;;15.50;99.90;;;;;;5082144;28;20235;-61
2023/10/20 08:03:42;;;;;;;10.70;9.47;;;15.50;99.90;;;;;;5079995;28;20224;-62
2023/10/20 08:06:12;;;;;;;12.07;8.80;;;15.50;99.90;;;;;;5076104;28;20213;-60
2023/10/20 08:08:43;;;;;;;10.40;9.00;;;15.60;99.90;;;;;;5080397;28;20224;-61
2023/10/20 08:11:16;;;;;;;11.20;8.50;;;15.60;99.90;;;;;;5082685;28;20245;-62
2023/10/20 08:13:51;;;;;;;9.07;8.13;;;15.60;99.90;;;;;;5065594;28;20231;-61
2023/10/20 08:16:21;;;;;;;8.43;7.63;;;15.60;99.90;;;;;;5080761;28;20731;-61
2023/10/20 08:18:51;;;;;;;8.90;8.00;;;15.60;99.90;;;;;;5085625;28;20240;-61
2023/10/20 08:21:20;;;;;;;9.40;8.50;;;15.60;99.90;;;;;;5079585;28;20216;-61
2023/10/20 08:23:48;;;;;;;8.40;7.60;;;15.70;99.90;;;;;;5084055;28;20225;-62
2023/10/20 08:26:19;;;;;;;9.00;7.60;;;15.70;99.90;;;;;;5079724;28;20673;-61
2023/10/20 08:28:49;;;;;;;8.57;7.40;;;15.70;99.90;;;;;;5080028;28;20312;-61
2023/10/20 08:31:17;;;;;;;8.47;7.00;;;15.70;99.90;;;;;;5085273;28;20251;-61
2023/10/20 08:33:46;;;;;;;8.73;7.83;;;15.70;99.90;;;;;;5082890;28;20219;-61
2023/10/20 08:36:16;;;;;;;11.67;7.27;;;15.70;99.90;;;;;;5082794;28;20218;-61
2023/10/20 08:38:46;;;;;;;8.20;7.23;;;15.70;99.90;;;;;;5080659;28;20223;-62
2023/10/20 08:41:17;;;;;;;8.03;7.23;;;15.80;99.90;;;;;;5083266;28;20240;-61
2023/10/20 08:43:46;;;;;;;9.43;7.70;;;15.80;99.90;;;;;;5077239;28;20221;-60
2023/10/20 08:46:17;;;;;;;8.57;7.73;;;15.80;99.90;;;;;;5086091;28;20229;-61
2023/10/20 08:48:48;;;;;;;8.20;7.50;;;15.80;99.90;;;;;;5082926;28;20809;-61
2023/10/20 08:51:19;;;;;;;9.27;7.67;;;15.80;99.90;;;;;;5086930;28;20254;-60
2023/10/20 08:53:48;;;;;;;8.53;7.73;;;15.80;99.90;;;;;;5068688;28;20223;-61
2023/10/20 08:56:18;;;;;;;10.73;7.43;;;15.70;99.90;;;;;;5081687;28;20222;-61
2023/10/20 08:58:47;;;;;;;9.17;7.70;;;15.80;99.90;;;;;;5084374;28;20227;-60
2023/10/20 09:01:16;;;;;;;8.67;7.77;;;15.80;99.90;;;;;;5086468;28;20319;-60
2023/10/20 09:03:48;;;;;;;10.77;8.20;;;15.90;99.90;;;;;;5088139;28;20224;-61
2023/10/20 09:06:19;;;;;;;8.23;7.50;;;15.90;99.90;;;;;;5077680;28;20707;-61
2023/10/20 09:08:49;;;;;;;7.47;6.70;;;15.90;99.90;;;;;;5086720;28;20240;-61
2023/10/20 09:11:19;;;;;;;7.13;6.47;;;15.90;99.90;;;;;;5086126;28;20753;-61
2023/10/20 09:13:47;;;;;;;7.17;6.47;;;15.90;99.90;;;;;;5083874;28;20793;-60
2023/10/20 09:16:16;;;;;;;5.47;4.90;;;15.90;99.90;;;;;;5086417;28;20217;-61
2023/10/20 09:18:49;;;;;;;4.70;4.30;;;15.90;99.90;;;;;;5085644;28;20220;-61
2023/10/20 09:21:21;;;;;;;4.60;4.30;;;15.90;99.90;;;;;;5082746;28;20219;-61
2023/10/20 09:23:59;;;;;;;5.17;4.67;;;15.90;99.90;;;;;;5084646;28;20222;-61
2023/10/20 09:26:31;;;;;;;4.47;4.07;;;15.90;99.90;;;;;;5082572;28;20305;-60
2023/10/20 09:28:59;;;;;;;4.10;3.90;;;15.80;99.90;;;;;;5085057;28;20304;-60
2023/10/20 09:31:29;;;;;;;4.70;4.50;;;15.80;99.90;;;;;;5085546;28;20193;-60
2023/10/20 09:33:57;;;;;;;4.67;4.27;;;15.90;99.90;;;;;;5064403;28;20204;-60
2023/10/20 09:36:29;;;;;;;4.30;3.90;;;15.80;99.90;;;;;;5081256;28;20225;-61
2023/10/20 09:39:02;;;;;;;3.93;3.53;;;15.90;99.90;;;;;;5071554;28;20241;-61
2023/10/20 09:41:31;;;;;;;4.40;4.10;;;15.80;99.90;;;;;;5070198;28;20731;-60
2023/10/20 09:44:05;;;;;;;4.00;3.60;;;15.80;99.90;;;;;;5085607;28;20214;-60
2023/10/20 09:46:44;;;;;;;3.67;3.47;;;15.80;99.90;;;;;;5068585;28;20224;-60
2023/10/20 09:49:18;;;;;;;4.17;3.87;;;15.80;99.90;;;;;;5085708;28;20655;-61
2023/10/20 09:51:50;;;;;;;4.73;3.73;;;15.80;99.90;;;;;;5084491;28;20323;-60
2023/10/20 09:54:24;;;;;;;3.90;3.60;;;15.70;99.90;;;;;;5081647;28;20215;-61
2023/10/20 09:56:53;;;;;;;2.20;2.10;;;15.80;99.90;;;;;;5087896;28;20228;-60
2023/10/20 09:59:23;;;;;;;2.20;2.10;;;15.70;99.90;;;;;;5086421;28;20233;-60
2023/10/20 10:01:54;;;;;;;2.00;1.90;;;15.60;99.90;;;;;;5084641;28;20236;-60
2023/10/20 10:04:28;;;;;;;2.40;1.80;;;15.50;99.90;;;;;;5082392;28;20254;-58
2023/10/20 10:07:03;;;;;;;2.07;1.97;;;15.30;99.90;;;;;;5078953;28;20205;-60
2023/10/20 10:09:36;;;;;;;2.10;2.00;;;15.30;99.90;;;;;;5084672;28;20224;-60
2023/10/20 10:12:10;;;;;;;1.77;1.77;;;15.30;99.90;;;;;;5087249;28;20248;-60
2023/10/20 10:14:38;;;;;;;2.07;1.97;;;15.30;99.90;;;;;;5087040;28;20724;-60
2023/10/20 10:17:09;;;;;;;2.37;2.27;;;15.30;99.90;;;;;;5085350;28;20616;-60
2023/10/20 10:19:49;;;;;;;2.60;2.40;;;15.20;99.90;;;;;;5085523;28;20204;-60
2023/10/20 10:22:26;;;;;;;2.00;2.00;;;15.10;99.90;;;;;;5086161;28;20247;-60
2023/10/20 10:24:55;;;;;;;2.20;2.20;;;15.10;99.90;;;;;;5086552;28;20664;-60
2023/10/20 10:27:27;;;;;;;2.30;2.20;;;15.10;99.90;;;;;;5084057;28;20217;-60
2023/10/20 10:29:59;;;;;;;2.67;2.50;;;15.10;99.90;;;;;;5082520;28;20219;-60
2023/10/20 10:32:31;;;;;;;2.30;2.20;;;15.10;99.90;;;;;;5085298;28;20221;-61
2023/10/20 10:35:01;;;;;;;2.50;2.30;;;15.10;99.90;;;;;;5085293;28;20221;-60
2023/10/20 10:37:33;;;;;;;2.27;2.17;;;15.10;99.90;;;;;;5084365;28;20215;-60
2023/10/20 10:40:08;;;;;;;2.33;2.20;;;15.20;99.90;;;;;;5084560;28;20691;-60
2023/10/20 10:42:41;;;;;;;2.60;2.40;;;15.20;99.90;;;;;;5087020;28;20219;-60
2023/10/20 10:45:21;;;;;;;2.63;2.10;;;15.20;99.90;;;;;;5083102;28;20222;-60
2023/10/20 10:47:50;;;;;;;3.13;2.03;;;15.20;99.90;;;;;;5083268;28;20236;-61
2023/10/20 10:50:21;;;;;;;2.40;2.30;;;15.00;99.90;;;;;;5085616;28;20227;-60
2023/10/20 10:52:50;;;;;;;2.27;2.17;;;15.00;99.90;;;;;;5086545;28;20252;-60
2023/10/20 10:55:20;;;;;;;2.20;2.10;;;15.00;99.90;;;;;;5085124;28;20240;-61
2023/10/20 10:57:49;;;;;;;2.43;2.23;;;15.00;99.90;;;;;;5086477;28;20240;-60
2023/10/20 11:00:18;;;;;;;2.10;2.10;;;15.00;99.90;;;;;;5082408;28;20258;-60
2023/10/20 11:02:47;;;;;;;2.63;2.17;;;15.00;99.90;;;;;;5085216;28;20226;-59
2023/10/20 11:05:16;;;;;;;2.33;2.23;;;15.00;99.90;;;;;;5084837;28;20216;-60
2023/10/20 11:08:01;;;;;;;2.43;2.20;;;15.00;99.90;;;;;;5082821;28;20311;-60
2023/10/20 11:10:30;;;;;;;2.67;2.47;;;14.90;99.90;;;;;;5085091;28;20639;-60
2023/10/20 11:13:00;;;;;;;2.87;2.63;;;14.90;99.90;;;;;;5081489;28;20211;-60
2023/10/20 11:15:30;;;;;;;2.80;2.70;;;14.90;99.90;;;;;;5075898;28;20722;-60
2023/10/20 11:18:00;;;;;;;2.40;2.40;;;14.90;99.90;;;;;;5082445;28;20216;-60
2023/10/20 11:20:32;;;;;;;2.60;2.40;;;14.90;99.90;;;;;;5081730;28;20324;-60
2023/10/20 11:23:04;;;;;;;2.23;2.13;;;14.90;99.90;;;;;;5085718;28;20230;-60
2023/10/20 11:25:32;;;;;;;3.23;2.20;;;14.80;99.90;;;;;;5086980;28;20200;-60
2023/10/20 11:28:02;;;;;;;2.20;2.10;;;14.80;99.90;;;;;;5080648;28;20302;-60
2023/10/20 11:30:34;;;;;;;4.10;2.20;;;14.80;99.90;;;;;;5064689;28;20297;-60
2023/10/20 11:33:03;;;;;;;2.13;1.90;;;14.90;99.90;;;;;;5080326;28;20226;-60
2023/10/20 11:35:32;;;;;;;2.07;2.07;;;14.90;99.90;;;;;;5085747;28;20219;-60
2023/10/20 11:38:03;;;;;;;2.10;1.90;;;14.90;99.90;;;;;;5081593;28;20308;-60
2023/10/20 11:40:31;;;;;;;3.13;1.90;;;14.90;99.90;;;;;;5083976;28;20207;-60
2023/10/20 11:42:59;;;;;;;2.87;1.93;;;14.90;99.90;;;;;;5084781;28;20195;-60
2023/10/20 11:45:27;;;;;;;3.17;2.40;;;14.90;99.90;;;;;;5081067;28;20229;-60
2023/10/20 11:47:56;;;;;;;2.87;2.70;;;14.90;99.90;;;;;;5082412;28;20222;-60
2023/10/20 11:50:24;;;;;;;2.77;2.57;;;14.80;99.90;;;;;;5073096;28;20627;-60
2023/10/20 11:52:52;;;;;;;2.57;2.47;;;14.90;99.90;;;;;;5084071;28;20241;-59
2023/10/20 11:55:22;;;;;;;4.20;2.80;;;14.90;99.90;;;;;;5080662;28;20193;-55
2023/10/20 11:57:50;;;;;;;3.37;3.17;;;14.80;99.90;;;;;;5064428;28;20194;-60
2023/10/20 12:00:19;;;;;;;3.27;3.13;;;14.80;99.90;;;;;;5084944;28;20222;-60
2023/10/20 12:02:49;;;;;;;3.50;3.20;;;14.80;99.90;;;;;;5081004;28;20284;-60
2023/10/20 12:05:17;;;;;;;3.43;3.23;;;14.80;99.90;;;;;;5077560;28;20225;-60
2023/10/20 12:07:45;;;;;;;4.57;3.67;;;14.80;99.90;;;;;;5080700;28;20254;-60
2023/10/20 12:10:14;;;;;;;4.10;3.80;;;14.80;99.90;;;;;;5079189;28;20212;-60
2023/10/20 12:12:43;;;;;;;4.03;3.63;;;14.70;99.90;;;;;;5078446;28;20232;-60
2023/10/20 12:15:12;;;;;;;4.83;4.43;;;14.80;99.90;;;;;;5085737;28;20224;-60
2023/10/20 12:17:41;;;;;;;6.07;4.70;;;14.80;99.90;;;;;;5079222;28;20598;-60
2023/10/20 12:20:10;;;;;;;5.00;4.60;;;14.80;99.90;;;;;;5080215;28;20587;-60
2023/10/20 12:22:38;;;;;;;5.47;5.07;;;14.80;99.90;;;;;;5081830;28;20679;-60
2023/10/20 12:25:09;;;;;;;6.10;5.60;;;14.80;99.90;;;;;;5082540;28;20211;-60
2023/10/20 12:27:39;;;;;;;6.47;5.83;;;14.80;99.90;;;;;;5083991;28;20321;-60
2023/10/20 12:30:10;;;;;;;6.90;6.20;;;14.80;99.90;;;;;;5080817;28;20255;-60
2023/10/20 12:32:42;;;;;;;7.17;6.57;;;14.80;99.90;;;;;;5078755;28;20311;-60
2023/10/20 12:35:11;;;;;;;7.50;6.90;;;14.70;99.90;;;;;;5081674;28;20221;-60
2023/10/20 12:37:39;;;;;;;7.67;6.97;;;14.70;99.90;;;;;;5083478;28;20563;-60
2023/10/20 12:40:09;;;;;;;8.07;7.37;;;14.70;99.90;;;;;;5083927;28;20187;-60
2023/10/20 12:42:37;;;;;;;10.57;8.40;;;14.80;99.90;;;;;;5077287;28;20692;-60
2023/10/20 12:45:09;;;;;;;11.70;9.17;;;14.70;99.90;;;;;;5081320;28;20246;-60
2023/10/20 12:47:38;;;;;;;13.97;9.73;;;14.80;99.90;;;;;;5083202;28;20704;-61
2023/10/20 12:50:08;;;;;;;15.37;10.20;;;14.80;99.90;;;;;;5077115;28;20224;-60
2023/10/20 12:52:37;;;;;;;17.80;11.07;;;14.80;99.90;;;;;;5077227;28;20957;-61
2023/10/20 12:55:06;;;;;;;18.43;11.20;;;14.80;99.90;;;;;;5077234;28;20188;-61
2023/10/20 12:57:34;;;;;;;15.57;10.50;;;14.80;99.90;;;;;;5083568;28;20597;-61
2023/10/20 13:00:04;;;;;;;16.63;11.17;;;14.80;99.90;;;;;;5081452;28;20216;-61
2023/10/20 13:02:34;;;;;;;17.57;11.47;;;14.80;99.90;;;;;;5084141;28;20781;-61
2023/10/20 13:05:04;;;;;;;16.37;10.30;;;14.80;99.90;;;;;;5085214;28;20235;-61
2023/10/20 13:07:32;;;;;;;15.40;11.07;;;14.80;99.90;;;;;;5083784;28;20547;-60
2023/10/20 13:10:03;;;;;;;15.50;10.27;;;14.80;99.90;;;;;;5081397;28;20207;-61
2023/10/20 13:12:32;;;;;;;16.37;11.17;;;14.90;99.90;;;;;;5077259;28;20220;-61